createdAt,value
2023-05-14T00:00:20.110Z,8.27
2023-05-14T00:02:46.584Z,9.27
2023-05-14T00:05:12.974Z,8.75
2023-05-14T00:07:39.443Z,8.35
2023-05-14T00:10:06.615Z,11.82
2023-05-14T00:12:32.936Z,8.70
2023-05-14T00:14:59.269Z,7.75
2023-05-14T00:17:25.627Z,9.13
2023-05-14T00:19:52.030Z,9.60
2023-05-14T00:22:18.412Z,8.70
2023-05-14T00:24:44.721Z,7.93
2023-05-14T00:27:11.416Z,6.38
2023-05-14T00:29:37.751Z,13.63
2023-05-14T00:32:04.333Z,6.75
2023-05-14T00:34:30.734Z,9.85
2023-05-14T00:36:57.114Z,10.73
2023-05-14T00:39:23.430Z,8.98
2023-05-14T00:41:49.853Z,7.80
2023-05-14T00:44:16.205Z,9.43
2023-05-14T00:46:43.569Z,10.82
2023-05-14T00:49:11.010Z,8.60
2023-05-14T00:51:37.917Z,8.48
2023-05-14T00:54:04.630Z,12.68
2023-05-14T00:56:31.465Z,8.15
2023-05-14T00:58:58.229Z,12.15
2023-05-14T01:01:24.714Z,11.68
2023-05-14T01:03:53.319Z,8.68
2023-05-14T01:06:42.268Z,8.50
2023-05-14T01:09:37.012Z,7.53
2023-05-14T01:12:41.115Z,10.52
2023-05-14T01:15:20.956Z,6.53
2023-05-14T01:17:55.473Z,9.43
2023-05-14T01:20:22.997Z,9.73
2023-05-14T01:22:49.575Z,11.02
2023-05-14T01:25:15.928Z,9.02
2023-05-14T01:28:12.487Z,7.53
2023-05-14T01:31:06.623Z,9.27
2023-05-14T01:33:34.721Z,9.95
2023-05-14T01:36:01.946Z,11.85
2023-05-14T01:38:31.574Z,12.18
2023-05-14T01:40:59.936Z,12.57
2023-05-14T01:43:26.974Z,16.40
2023-05-14T01:45:55.211Z,14.75
2023-05-14T01:48:21.627Z,11.40
2023-05-14T01:50:47.996Z,13.20
2023-05-14T01:53:14.462Z,16.33
2023-05-14T01:55:40.786Z,16.27
2023-05-14T01:58:07.107Z,18.42
2023-05-14T02:00:33.404Z,18.00
2023-05-14T02:02:59.867Z,9.32
2023-05-14T02:05:26.207Z,12.70
2023-05-14T02:07:53.933Z,13.93
2023-05-14T02:10:20.486Z,11.35
2023-05-14T02:12:49.192Z,12.13
2023-05-14T02:15:16.215Z,10.23
2023-05-14T02:17:42.589Z,13.27
2023-05-14T02:20:11.089Z,13.57
2023-05-14T02:22:37.897Z,13.85
2023-05-14T02:25:04.445Z,23.17
2023-05-14T02:27:30.780Z,15.43
2023-05-14T02:30:00.526Z,18.20
2023-05-14T02:32:27.907Z,22.63
2023-05-14T02:34:54.310Z,11.43
2023-05-14T02:37:20.663Z,14.13
2023-05-14T02:39:47.041Z,17.00
2023-05-14T02:42:15.454Z,24.35
2023-05-14T02:44:41.777Z,18.90
2023-05-14T02:47:08.144Z,19.63
2023-05-14T02:49:34.529Z,19.15
2023-05-14T02:52:00.875Z,16.63
2023-05-14T02:54:27.235Z,24.20
2023-05-14T02:56:53.598Z,20.00
2023-05-14T02:59:19.993Z,25.45
2023-05-14T03:01:46.786Z,20.38
2023-05-14T03:04:13.599Z,20.10
2023-05-14T03:06:39.907Z,26.98
2023-05-14T03:09:06.262Z,13.27
2023-05-14T03:11:32.783Z,26.70
2023-05-14T03:13:59.184Z,22.55
2023-05-14T03:16:25.678Z,22.23
2023-05-14T03:18:52.117Z,20.58
2023-05-14T03:21:18.778Z,12.75
2023-05-14T03:23:45.089Z,10.52
2023-05-14T03:26:37.212Z,11.65
2023-05-14T03:29:05.167Z,17.23
2023-05-14T03:31:31.570Z,28.63
2023-05-14T03:33:58.050Z,20.27
2023-05-14T03:36:24.472Z,17.70
2023-05-14T03:38:50.772Z,18.20
2023-05-14T03:41:18.400Z,24.77
2023-05-14T03:43:44.688Z,17.80
2023-05-14T03:46:11.142Z,19.25
2023-05-14T03:48:37.665Z,12.38
2023-05-14T03:51:04.834Z,10.25
2023-05-14T03:53:31.214Z,15.48
2023-05-14T03:55:57.533Z,17.10
2023-05-14T03:58:23.826Z,16.50
2023-05-14T04:00:50.244Z,18.77
2023-05-14T04:03:16.952Z,17.35
2023-05-14T04:05:43.352Z,13.27
2023-05-14T04:08:09.674Z,20.30
2023-05-14T04:10:36.083Z,11.63
2023-05-14T04:13:02.561Z,18.52
2023-05-14T04:15:32.359Z,11.05
2023-05-14T04:17:58.785Z,12.15
2023-05-14T04:20:25.703Z,11.82
2023-05-14T04:22:52.680Z,10.82
2023-05-14T04:25:19.175Z,12.93
2023-05-14T04:27:45.691Z,31.85
2023-05-14T04:30:12.412Z,15.05
2023-05-14T04:32:39.150Z,11.77
2023-05-14T04:35:06.343Z,12.88
2023-05-14T04:37:33.012Z,15.27
2023-05-14T04:39:59.428Z,13.70
2023-05-14T04:42:25.721Z,15.88
2023-05-14T04:44:52.298Z,19.45
2023-05-14T04:47:18.758Z,17.25
2023-05-14T04:49:45.099Z,25.02
2023-05-14T04:52:11.424Z,22.58
2023-05-14T04:54:37.779Z,24.17
2023-05-14T04:57:04.392Z,26.13
2023-05-14T04:59:31.453Z,18.58
2023-05-14T05:01:57.983Z,21.05
2023-05-14T05:04:24.386Z,18.80
2023-05-14T05:06:50.751Z,16.63
2023-05-14T05:09:20.104Z,15.50
2023-05-14T05:11:46.496Z,33.15
2023-05-14T05:14:12.969Z,24.60
2023-05-14T05:16:39.387Z,20.80
2023-05-14T05:19:05.754Z,21.50
2023-05-14T05:21:32.098Z,31.33
2023-05-14T05:23:58.413Z,20.23
2023-05-14T05:26:26.706Z,19.08
2023-05-14T05:28:52.996Z,20.85
2023-05-14T05:31:20.103Z,17.45
2023-05-14T05:33:47.566Z,17.67
2023-05-14T05:36:13.995Z,19.85
2023-05-14T05:38:40.358Z,18.13
2023-05-14T05:41:07.278Z,16.38
2023-05-14T05:43:34.071Z,15.75
2023-05-14T05:46:00.945Z,16.60
2023-05-14T05:48:27.272Z,15.65
2023-05-14T05:50:53.788Z,15.95
2023-05-14T05:53:20.101Z,14.98
2023-05-14T05:55:46.508Z,15.90
2023-05-14T05:58:15.615Z,18.73
2023-05-14T06:00:41.931Z,15.77
2023-05-14T06:03:08.293Z,19.33
2023-05-14T06:05:34.696Z,18.42
2023-05-14T06:08:01.117Z,18.98
2023-05-14T06:10:27.478Z,15.88
2023-05-14T06:12:53.805Z,16.42
2023-05-14T06:15:21.388Z,17.80
2023-05-14T06:17:47.788Z,16.63
2023-05-14T06:20:14.166Z,17.77
2023-05-14T06:22:40.539Z,18.52
2023-05-14T06:25:07.474Z,15.07
2023-05-14T06:27:33.895Z,15.40
2023-05-14T06:30:00.250Z,16.92
2023-05-14T06:32:26.601Z,14.20
2023-05-14T06:34:52.930Z,14.27
2023-05-14T06:37:19.246Z,15.48
2023-05-14T06:39:49.874Z,15.75
2023-05-14T06:42:16.862Z,13.32
2023-05-14T06:44:43.494Z,16.02
2023-05-14T06:47:09.851Z,15.65
2023-05-14T06:49:36.222Z,15.65
2023-05-14T06:52:03.499Z,14.23
2023-05-14T06:54:30.942Z,14.30
2023-05-14T06:56:57.473Z,16.90
2023-05-14T06:59:23.928Z,16.42
2023-05-14T07:01:50.294Z,15.75
2023-05-14T07:04:16.913Z,14.85
2023-05-14T07:06:43.261Z,17.13
2023-05-14T07:09:10.548Z,14.88
2023-05-14T07:11:36.897Z,15.52
2023-05-14T07:14:03.390Z,16.02
2023-05-14T07:16:29.840Z,18.35
2023-05-14T07:18:56.192Z,16.20
2023-05-14T07:21:22.649Z,15.15
2023-05-14T07:23:48.992Z,16.70
2023-05-14T07:26:15.479Z,14.68
2023-05-14T07:28:41.804Z,16.30
2023-05-14T07:31:08.829Z,16.45
2023-05-14T07:33:36.307Z,14.80
2023-05-14T07:36:02.708Z,18.50
2023-05-14T07:38:29.163Z,15.77
2023-05-14T07:40:56.030Z,17.98
2023-05-14T07:43:22.399Z,20.50
2023-05-14T07:45:48.780Z,14.30
2023-05-14T07:48:15.347Z,16.17
2023-05-14T07:50:41.861Z,19.33
2023-05-14T07:53:08.200Z,15.40
2023-05-14T07:55:34.553Z,15.05
2023-05-14T07:58:00.943Z,17.75
2023-05-14T08:00:27.469Z,15.48
2023-05-14T08:02:55.152Z,14.27
2023-05-14T08:05:21.789Z,14.70
2023-05-14T08:07:48.127Z,16.00
2023-05-14T08:10:14.487Z,15.18
2023-05-14T08:12:41.623Z,14.38
2023-05-14T08:15:08.402Z,13.82
2023-05-14T08:17:34.909Z,16.95
2023-05-14T08:20:02.022Z,14.15
2023-05-14T08:22:28.391Z,17.08
2023-05-14T08:24:54.899Z,12.85
2023-05-14T08:27:21.456Z,16.80
2023-05-14T08:29:47.753Z,13.38
2023-05-14T08:32:22.825Z,12.50
2023-05-14T08:34:51.412Z,14.95
2023-05-14T08:37:17.874Z,15.15
2023-05-14T08:39:44.464Z,14.18
2023-05-14T08:42:12.964Z,12.93
2023-05-14T08:44:44.434Z,13.48
2023-05-14T08:47:12.449Z,12.68
2023-05-14T08:49:44.299Z,13.00
2023-05-14T08:52:11.431Z,13.65
2023-05-14T08:54:38.657Z,15.98
2023-05-14T08:57:05.726Z,12.98
2023-05-14T08:59:32.158Z,13.35
2023-05-14T09:02:01.718Z,10.65
2023-05-14T09:04:29.523Z,9.93
2023-05-14T09:06:56.066Z,10.10
2023-05-14T09:09:23.010Z,12.50
2023-05-14T09:11:51.294Z,9.45
2023-05-14T09:14:17.948Z,14.27
2023-05-14T09:16:49.498Z,10.63
2023-05-14T09:19:18.883Z,8.32
2023-05-14T09:21:46.204Z,8.85
2023-05-14T09:24:23.022Z,10.57
2023-05-14T09:26:53.927Z,8.75
2023-05-14T09:29:21.602Z,7.90
2023-05-14T09:31:50.290Z,11.80
2023-05-14T09:34:30.508Z,6.35
2023-05-14T09:36:57.783Z,7.57
2023-05-14T09:39:25.605Z,7.10
2023-05-14T09:41:52.693Z,5.90
2023-05-14T09:44:19.716Z,5.80
2023-05-14T09:46:46.966Z,5.68
2023-05-14T09:49:13.354Z,6.60
2023-05-14T09:51:39.899Z,7.13
2023-05-14T09:54:06.804Z,8.45
2023-05-14T09:56:34.565Z,10.25
2023-05-14T09:59:01.075Z,6.35
2023-05-14T10:01:29.141Z,5.70
2023-05-14T10:03:56.152Z,5.22
2023-05-14T10:06:29.357Z,6.32
2023-05-14T10:08:58.355Z,6.63
2023-05-14T10:11:28.386Z,6.43
2023-05-14T10:14:19.752Z,5.00
2023-05-14T10:16:54.103Z,5.28
2023-05-14T10:19:24.050Z,5.60
2023-05-14T10:21:56.721Z,5.35
2023-05-14T10:24:24.833Z,6.72
2023-05-14T10:26:51.921Z,3.95
2023-05-14T10:29:18.305Z,4.88
2023-05-14T10:31:55.189Z,4.60
2023-05-14T10:34:40.567Z,4.18
2023-05-14T10:37:11.792Z,4.63
2023-05-14T10:39:50.401Z,4.95
2023-05-14T10:42:23.133Z,4.03
2023-05-14T10:44:54.205Z,3.75
2023-05-14T10:49:50.694Z,3.80
2023-05-14T10:52:19.349Z,4.55
2023-05-14T10:54:48.838Z,5.80
2023-05-14T10:57:15.253Z,4.88
2023-05-14T10:59:42.699Z,6.07
2023-05-14T11:02:24.026Z,5.70
2023-05-14T11:05:03.304Z,4.15
2023-05-14T11:07:37.810Z,6.35
2023-05-14T11:10:05.485Z,4.32
2023-05-14T11:12:33.593Z,3.20
2023-05-14T11:15:02.295Z,4.18
2023-05-14T11:17:30.554Z,4.03
2023-05-14T11:19:58.021Z,5.15
2023-05-14T11:22:24.789Z,3.67
2023-05-14T11:24:51.154Z,3.20
2023-05-14T11:27:18.600Z,3.90
2023-05-14T11:29:46.118Z,3.88
2023-05-14T11:32:13.275Z,2.70
2023-05-14T11:34:39.754Z,5.35
2023-05-14T11:37:10.108Z,3.40
2023-05-14T11:39:37.500Z,3.38
2023-05-14T11:42:05.704Z,3.63
2023-05-14T11:44:32.377Z,3.72
2023-05-14T11:46:59.311Z,4.65
2023-05-14T11:49:26.762Z,3.72
2023-05-14T11:52:00.765Z,5.95
2023-05-14T11:54:30.433Z,4.28
2023-05-14T11:56:57.521Z,3.20
2023-05-14T11:59:25.416Z,3.00
2023-05-14T12:01:54.679Z,3.35
2023-05-14T12:04:24.410Z,2.78
2023-05-14T12:06:53.959Z,3.33
2023-05-14T12:09:21.691Z,3.40
2023-05-14T12:11:50.511Z,4.43
2023-05-14T12:14:22.055Z,6.38
2023-05-14T12:16:49.414Z,2.83
2023-05-14T12:19:19.132Z,4.15
2023-05-14T12:21:47.533Z,3.22
2023-05-14T12:24:16.751Z,2.88
2023-05-14T12:26:47.330Z,2.85
2023-05-14T12:29:15.296Z,2.78
2023-05-14T12:31:49.362Z,2.45
2023-05-14T12:34:16.903Z,2.60
2023-05-14T12:36:44.437Z,3.03
2023-05-14T12:39:12.110Z,3.75
2023-05-14T12:41:38.395Z,4.25
2023-05-14T12:44:05.241Z,3.33
2023-05-14T12:46:32.867Z,2.70
2023-05-14T12:48:59.315Z,2.60
2023-05-14T12:51:25.705Z,3.05
2023-05-14T12:53:53.974Z,1.92
2023-05-14T12:56:21.228Z,3.05
2023-05-14T12:58:47.615Z,5.70
2023-05-14T13:01:14.014Z,2.88
2023-05-14T13:03:40.950Z,2.67
2023-05-14T13:06:07.790Z,3.95
2023-05-14T13:08:35.039Z,2.33
2023-05-14T13:11:01.359Z,3.42
2023-05-14T13:13:27.775Z,3.83
2023-05-14T13:15:54.088Z,2.70
2023-05-14T13:18:20.401Z,2.22
2023-05-14T13:20:49.706Z,2.85
2023-05-14T13:23:15.995Z,2.70
2023-05-14T13:25:42.304Z,2.50
2023-05-14T13:28:09.163Z,2.78
2023-05-14T13:30:35.659Z,3.33
2023-05-14T13:33:02.181Z,2.70
2023-05-14T13:35:28.639Z,2.90
2023-05-14T13:37:54.960Z,2.95
2023-05-14T13:40:21.364Z,4.03
2023-05-14T13:42:47.720Z,3.97
2023-05-14T13:45:14.038Z,5.22
2023-05-14T13:47:40.496Z,3.47
2023-05-14T13:50:07.336Z,3.03
2023-05-14T13:52:33.660Z,3.22
2023-05-14T13:54:59.989Z,4.15
2023-05-14T13:57:26.292Z,3.58
2023-05-14T13:59:52.774Z,3.88
2023-05-14T14:02:19.095Z,2.83
2023-05-14T14:04:45.475Z,5.40
2023-05-14T14:07:11.807Z,2.97
2023-05-14T14:09:38.142Z,3.10
2023-05-14T14:12:04.860Z,6.95
2023-05-14T14:14:31.405Z,3.10
2023-05-14T14:16:57.737Z,3.50
2023-05-14T14:19:24.039Z,5.15
2023-05-14T14:24:17.662Z,5.13
2023-05-14T14:26:43.986Z,3.95
2023-05-14T14:29:10.381Z,4.65
2023-05-14T14:31:36.754Z,3.05
2023-05-14T14:34:03.200Z,3.00
2023-05-14T14:36:30.558Z,3.05
2023-05-14T14:38:57.067Z,3.50
2023-05-14T14:41:23.489Z,3.22
2023-05-14T14:43:49.880Z,2.97
2023-05-14T14:46:16.232Z,5.13
2023-05-14T14:48:42.586Z,6.32
2023-05-14T14:51:09.521Z,3.88
2023-05-14T14:53:36.998Z,3.67
2023-05-14T14:56:03.520Z,3.50
2023-05-14T14:58:30.914Z,3.92
2023-05-14T15:00:57.813Z,6.45
2023-05-14T15:03:25.078Z,4.47
2023-05-14T15:05:53.193Z,7.00
2023-05-14T15:08:20.650Z,9.05
2023-05-14T15:10:46.947Z,9.77
2023-05-14T15:13:13.342Z,8.48
2023-05-14T15:15:39.663Z,13.07
2023-05-14T15:18:06.097Z,4.03
2023-05-14T15:20:32.589Z,2.85
2023-05-14T15:22:58.945Z,5.85
2023-05-14T15:25:26.606Z,1.90
2023-05-14T15:27:53.089Z,2.75
2023-05-14T15:30:19.592Z,3.72
2023-05-14T15:32:46.462Z,2.50
2023-05-14T15:35:12.918Z,3.80
2023-05-14T15:37:44.427Z,3.47
2023-05-14T15:40:11.437Z,6.68
2023-05-14T15:42:40.106Z,2.53
2023-05-14T15:45:06.777Z,3.33
2023-05-14T15:47:33.309Z,5.50
2023-05-14T15:50:00.065Z,3.92
2023-05-14T15:52:27.002Z,1.83
2023-05-14T15:54:54.206Z,2.25
2023-05-14T15:57:20.529Z,2.25
2023-05-14T15:59:47.376Z,2.13
2023-05-14T16:02:14.961Z,2.83
2023-05-14T16:04:41.462Z,2.58
2023-05-14T16:07:11.952Z,2.78
2023-05-14T16:09:38.809Z,4.72
2023-05-14T16:12:06.341Z,5.55
2023-05-14T16:14:35.791Z,5.30
2023-05-14T16:17:02.234Z,3.58
2023-05-14T16:19:28.625Z,2.42
2023-05-14T16:21:54.996Z,2.63
2023-05-14T16:24:21.411Z,4.32
2023-05-14T16:26:47.874Z,4.82
2023-05-14T16:29:14.274Z,3.45
2023-05-14T16:31:40.695Z,2.53
2023-05-14T16:34:06.985Z,3.25
2023-05-14T16:36:33.320Z,3.03
2023-05-14T16:39:07.097Z,2.90
2023-05-14T16:41:35.193Z,2.47
2023-05-14T16:44:01.553Z,3.13
2023-05-14T16:46:29.269Z,3.63
2023-05-14T16:48:56.197Z,6.82
2023-05-14T16:51:22.579Z,2.58
2023-05-14T16:53:49.018Z,4.38
2023-05-14T16:56:15.477Z,2.88
2023-05-14T16:58:41.870Z,4.30
2023-05-14T17:01:09.907Z,2.75
2023-05-14T17:03:36.855Z,5.20
2023-05-14T17:06:04.460Z,6.70
2023-05-14T17:08:33.363Z,2.58
2023-05-14T17:10:59.723Z,4.72
2023-05-14T17:13:26.186Z,2.75
2023-05-14T17:15:52.668Z,2.58
2023-05-14T17:18:19.098Z,3.00
2023-05-14T17:20:45.461Z,3.78
2023-05-14T17:23:11.760Z,3.38
2023-05-14T17:25:38.084Z,8.40
2023-05-14T17:28:04.528Z,5.97
2023-05-14T17:30:31.036Z,5.55
2023-05-14T17:32:57.436Z,6.97
2023-05-14T17:35:24.028Z,2.92
2023-05-14T17:37:50.550Z,5.70
2023-05-14T17:40:16.992Z,4.53
2023-05-14T17:42:45.305Z,3.72
2023-05-14T17:45:13.009Z,5.93
2023-05-14T17:47:39.446Z,7.07
2023-05-14T17:50:06.496Z,3.20
2023-05-14T17:52:32.877Z,5.15
2023-05-14T17:54:59.279Z,5.38
2023-05-14T17:57:26.025Z,3.65
2023-05-14T17:59:52.354Z,3.38
2023-05-14T18:02:18.669Z,3.85
2023-05-14T18:04:45.088Z,6.65
2023-05-14T18:07:11.432Z,3.08
2023-05-14T18:09:37.810Z,4.35
2023-05-14T18:12:04.345Z,5.05
2023-05-14T18:14:30.677Z,5.93
2023-05-14T18:16:57.196Z,4.35
2023-05-14T18:19:25.758Z,5.80
2023-05-14T18:21:55.150Z,4.35
2023-05-14T18:24:21.976Z,5.25
2023-05-14T18:26:48.395Z,4.80
2023-05-14T18:29:14.810Z,6.40
2023-05-14T18:31:41.146Z,4.80
2023-05-14T18:34:07.552Z,3.40
2023-05-14T18:36:33.926Z,6.82
2023-05-14T18:39:00.340Z,4.50
2023-05-14T18:41:26.701Z,6.57
2023-05-14T18:43:53.071Z,7.75
2023-05-14T18:46:19.539Z,5.75
2023-05-14T18:48:46.207Z,4.50
2023-05-14T18:51:12.951Z,5.78
2023-05-14T18:53:39.256Z,5.13
2023-05-14T18:56:05.668Z,3.97
2023-05-14T18:58:32.412Z,5.07
2023-05-14T19:00:58.988Z,5.35
2023-05-14T19:03:25.873Z,4.97
2023-05-14T19:05:53.356Z,4.32
2023-05-14T19:08:20.362Z,13.40
2023-05-14T19:10:46.719Z,5.32
2023-05-14T19:13:13.104Z,5.18
2023-05-14T19:15:39.532Z,4.43
2023-05-14T19:18:06.135Z,6.07
2023-05-14T19:20:32.589Z,4.93
2023-05-14T19:22:58.895Z,6.13
2023-05-14T19:25:25.600Z,4.40
2023-05-14T19:27:53.503Z,7.32
2023-05-14T19:30:20.695Z,5.13
2023-05-14T19:32:47.104Z,6.30
2023-05-14T19:35:13.410Z,7.95
2023-05-14T19:37:39.727Z,7.15
2023-05-14T19:40:06.770Z,6.68
2023-05-14T19:42:33.148Z,4.53
2023-05-14T19:44:59.519Z,6.50
2023-05-14T19:47:25.904Z,5.32
2023-05-14T19:49:52.316Z,5.18
2023-05-14T19:52:18.652Z,4.00
2023-05-14T19:54:45.105Z,6.43
2023-05-14T19:57:11.713Z,4.07
2023-05-14T19:59:39.102Z,3.50
2023-05-14T20:02:05.655Z,4.35
2023-05-14T20:04:33.029Z,4.43
2023-05-14T20:06:59.387Z,7.47
2023-05-14T20:09:25.883Z,3.80
2023-05-14T20:11:52.214Z,4.90
2023-05-14T20:14:18.542Z,6.03
2023-05-14T20:16:46.700Z,5.38
2023-05-14T20:19:14.125Z,3.28
2023-05-14T20:21:40.555Z,4.88
2023-05-14T20:24:06.981Z,8.60
2023-05-14T20:26:33.330Z,7.15
2023-05-14T20:28:59.638Z,4.65
2023-05-14T20:31:26.044Z,5.95
2023-05-14T20:33:52.374Z,3.80
2023-05-14T20:36:19.044Z,5.47
2023-05-14T20:38:45.572Z,8.50
2023-05-14T20:41:12.025Z,9.13
2023-05-14T20:43:38.404Z,3.92
2023-05-14T20:46:07.084Z,5.53
2023-05-14T20:48:33.466Z,9.05
2023-05-14T20:50:59.872Z,3.75
2023-05-14T20:53:28.149Z,2.88
2023-05-14T20:55:54.482Z,6.10
2023-05-14T20:58:20.930Z,4.40
2023-05-14T21:00:47.359Z,5.70
2023-05-14T21:03:13.809Z,7.15
2023-05-14T21:05:41.877Z,4.47
2023-05-14T21:08:08.294Z,5.05
2023-05-14T21:10:34.894Z,6.38
2023-05-14T21:13:01.243Z,5.10
2023-05-14T21:15:27.885Z,4.75
2023-05-14T21:17:54.438Z,6.47
2023-05-14T21:20:20.953Z,5.88
2023-05-14T21:22:47.284Z,4.47
2023-05-14T21:25:13.727Z,9.90
2023-05-14T21:27:40.112Z,6.00
2023-05-14T21:30:07.137Z,3.50
2023-05-14T21:32:33.515Z,3.95
2023-05-14T21:34:59.954Z,6.88
2023-05-14T21:37:26.334Z,4.88
2023-05-14T21:39:52.677Z,6.70
2023-05-14T21:42:20.815Z,4.85
2023-05-14T21:44:47.313Z,9.82
2023-05-14T21:47:13.837Z,3.85
2023-05-14T21:49:40.174Z,7.60
2023-05-14T21:52:06.632Z,6.80
2023-05-14T21:54:33.099Z,3.20
2023-05-14T21:56:59.570Z,5.60
2023-05-14T21:59:25.904Z,3.97
2023-05-14T22:02:06.309Z,6.35
2023-05-14T22:06:59.987Z,4.45
2023-05-14T22:09:26.382Z,5.70
2023-05-14T22:11:52.711Z,6.20
2023-05-14T22:14:19.022Z,5.05
2023-05-14T22:16:45.637Z,7.97
2023-05-14T22:19:12.139Z,11.85
2023-05-14T22:21:38.571Z,3.67
2023-05-14T22:24:05.127Z,6.47
2023-05-14T22:26:31.451Z,5.05
2023-05-14T22:28:57.824Z,8.07
2023-05-14T22:31:24.425Z,4.53
2023-05-14T22:33:50.838Z,5.05
2023-05-14T22:36:17.180Z,5.85
2023-05-14T22:38:43.785Z,10.32
2023-05-14T22:41:10.775Z,8.30
2023-05-14T22:43:37.128Z,5.05
2023-05-14T22:46:03.679Z,10.25
2023-05-14T22:48:30.041Z,3.80
2023-05-14T22:50:56.348Z,11.57
2023-05-14T22:53:24.328Z,4.93
2023-05-14T22:55:51.426Z,4.75
2023-05-14T22:58:17.777Z,8.23
2023-05-14T23:00:44.104Z,7.18
2023-05-14T23:03:10.475Z,7.90
2023-05-14T23:05:36.903Z,8.25
2023-05-14T23:08:03.652Z,4.25
2023-05-14T23:10:29.998Z,10.55
2023-05-14T23:12:56.374Z,10.80
2023-05-14T23:15:22.826Z,7.78
2023-05-14T23:17:49.392Z,5.05
2023-05-14T23:20:15.861Z,8.68
2023-05-14T23:22:42.209Z,4.47
2023-05-14T23:25:09.184Z,6.07
2023-05-14T23:27:35.580Z,5.32
2023-05-14T23:30:03.517Z,4.82
2023-05-14T23:32:29.917Z,4.68
2023-05-14T23:34:56.264Z,8.18
2023-05-14T23:37:23.121Z,6.53
2023-05-14T23:39:49.510Z,4.40
2023-05-14T23:42:15.819Z,5.28
2023-05-14T23:44:42.161Z,6.05
2023-05-14T23:47:08.694Z,4.60
2023-05-14T23:49:35.387Z,4.72
2023-05-14T23:52:02.188Z,8.82
2023-05-14T23:54:28.551Z,5.85
2023-05-14T23:56:54.898Z,8.48
2023-05-14T23:59:21.955Z,8.70
